createdAt,value
2023-05-16T00:01:48.633Z,12.12
2023-05-16T00:04:15.631Z,12.22
2023-05-16T00:06:42.484Z,12.26
2023-05-16T00:09:09.410Z,12.26
2023-05-16T00:11:38.987Z,12.09
2023-05-16T00:14:06.121Z,12.16
2023-05-16T00:16:33.149Z,12.33
2023-05-16T00:19:01.292Z,12.10
2023-05-16T00:21:28.520Z,12.15
2023-05-16T00:23:55.210Z,12.12
2023-05-16T00:26:22.469Z,12.10
2023-05-16T00:28:49.153Z,12.02
2023-05-16T00:31:16.036Z,11.95
2023-05-16T00:33:42.775Z,12.04
2023-05-16T00:36:09.515Z,11.97
2023-05-16T00:38:36.253Z,11.81
2023-05-16T00:41:04.460Z,11.95
2023-05-16T00:43:31.391Z,11.95
2023-05-16T00:45:58.197Z,12.01
2023-05-16T00:48:25.611Z,11.93
2023-05-16T00:50:53.416Z,11.85
2023-05-16T00:53:22.328Z,11.94
2023-05-16T00:55:49.120Z,11.96
2023-05-16T00:58:16.544Z,11.92
2023-05-16T01:00:47.158Z,11.92
2023-05-16T01:03:15.390Z,11.88
2023-05-16T01:05:42.273Z,11.80
2023-05-16T01:08:09.009Z,11.72
2023-05-16T01:10:57.687Z,11.67
2023-05-16T01:13:39.110Z,11.59
2023-05-16T01:16:30.254Z,11.65
2023-05-16T01:19:16.573Z,11.65
2023-05-16T01:21:57.591Z,11.62
2023-05-16T01:24:35.158Z,11.67
2023-05-16T01:27:05.003Z,11.48
2023-05-16T01:29:33.638Z,11.51
2023-05-16T01:32:00.687Z,11.65
2023-05-16T01:34:27.462Z,11.57
2023-05-16T01:37:14.682Z,11.53
2023-05-16T01:39:53.475Z,11.44
2023-05-16T01:42:24.797Z,11.59
2023-05-16T01:45:00.154Z,11.56
2023-05-16T01:47:29.194Z,11.72
2023-05-16T01:50:09.299Z,11.64
2023-05-16T01:52:42.602Z,11.56
2023-05-16T01:55:15.213Z,11.45
2023-05-16T01:57:42.677Z,11.37
2023-05-16T02:00:10.183Z,11.34
2023-05-16T02:02:40.921Z,11.49
2023-05-16T02:05:09.332Z,11.49
2023-05-16T02:07:36.473Z,11.44
2023-05-16T02:10:03.355Z,11.47
2023-05-16T02:12:30.064Z,11.45
2023-05-16T02:14:56.720Z,11.46
2023-05-16T02:17:23.445Z,11.34
2023-05-16T02:19:50.244Z,11.27
2023-05-16T02:22:16.862Z,11.30
2023-05-16T02:24:43.570Z,11.31
2023-05-16T02:27:12.070Z,11.10
2023-05-16T02:29:38.832Z,11.13
2023-05-16T02:32:06.026Z,11.02
2023-05-16T02:34:32.759Z,11.10
2023-05-16T02:36:59.457Z,11.07
2023-05-16T02:39:26.184Z,11.08
2023-05-16T02:41:53.223Z,10.99
2023-05-16T02:44:19.904Z,10.86
2023-05-16T02:46:46.762Z,10.99
2023-05-16T02:49:13.607Z,11.03
2023-05-16T02:51:40.220Z,11.09
2023-05-16T02:54:10.126Z,10.87
2023-05-16T02:56:37.497Z,10.93
2023-05-16T02:59:05.169Z,10.92
2023-05-16T03:01:31.953Z,11.01
2023-05-16T03:03:58.777Z,11.05
2023-05-16T03:06:25.646Z,10.91
2023-05-16T03:08:52.397Z,10.99
2023-05-16T03:11:21.363Z,10.97
2023-05-16T03:13:48.472Z,10.97
2023-05-16T03:16:15.913Z,10.90
2023-05-16T03:18:43.254Z,10.96
2023-05-16T03:21:10.814Z,10.89
2023-05-16T03:23:37.578Z,10.77
2023-05-16T03:26:05.335Z,10.83
2023-05-16T03:28:32.183Z,10.87
2023-05-16T03:30:59.126Z,10.76
2023-05-16T03:33:25.734Z,10.80
2023-05-16T03:35:52.825Z,10.75
2023-05-16T03:38:19.608Z,10.82
2023-05-16T03:40:46.685Z,10.85
2023-05-16T03:43:13.606Z,10.76
2023-05-16T03:45:40.682Z,10.73
2023-05-16T03:48:09.156Z,10.77
2023-05-16T03:50:39.477Z,10.71
2023-05-16T03:53:07.897Z,10.63
2023-05-16T03:55:35.270Z,10.65
2023-05-16T03:58:02.135Z,10.71
2023-05-16T04:00:28.998Z,10.77
2023-05-16T04:02:55.998Z,10.66
2023-05-16T04:05:22.768Z,10.67
2023-05-16T04:07:49.668Z,10.55
2023-05-16T04:10:16.537Z,10.46
2023-05-16T04:12:44.673Z,10.63
2023-05-16T04:15:12.015Z,10.34
2023-05-16T04:17:38.778Z,10.38
2023-05-16T04:20:07.237Z,10.46
2023-05-16T04:22:34.130Z,10.23
2023-05-16T04:25:01.039Z,10.43
2023-05-16T04:27:27.876Z,10.41
2023-05-16T04:29:54.573Z,10.30
2023-05-16T04:32:21.569Z,10.29
2023-05-16T04:34:48.692Z,10.31
2023-05-16T04:37:15.422Z,10.45
2023-05-16T04:39:42.831Z,10.28
2023-05-16T04:42:09.653Z,10.18
2023-05-16T04:44:36.377Z,10.31
2023-05-16T04:47:03.162Z,10.24
2023-05-16T04:49:29.852Z,10.15
2023-05-16T04:51:56.509Z,10.28
2023-05-16T04:54:23.390Z,10.24
2023-05-16T04:56:50.718Z,10.38
2023-05-16T04:59:17.861Z,10.13
2023-05-16T05:01:44.789Z,10.34
2023-05-16T05:04:11.562Z,10.39
2023-05-16T05:06:39.446Z,10.30
2023-05-16T05:09:06.384Z,10.26
2023-05-16T05:11:33.180Z,10.16
2023-05-16T05:13:59.930Z,10.25
2023-05-16T05:16:26.854Z,10.33
2023-05-16T05:18:53.749Z,10.36
2023-05-16T05:21:20.933Z,10.27
2023-05-16T05:23:49.841Z,10.15
2023-05-16T05:26:17.496Z,10.13
2023-05-16T05:28:53.717Z,10.33
2023-05-16T05:31:24.775Z,10.20
2023-05-16T05:33:51.514Z,10.34
2023-05-16T05:36:18.188Z,10.33
2023-05-16T05:38:45.254Z,10.40
2023-05-16T05:41:12.323Z,10.37
2023-05-16T05:43:39.153Z,10.44
2023-05-16T05:46:07.366Z,10.39
2023-05-16T05:48:34.610Z,10.29
2023-05-16T05:51:01.529Z,10.36
2023-05-16T05:53:28.254Z,10.22
2023-05-16T05:55:54.944Z,10.38
2023-05-16T05:58:21.800Z,10.40
2023-05-16T06:00:48.635Z,10.22
2023-05-16T06:03:15.484Z,10.27
2023-05-16T06:05:42.643Z,10.30
2023-05-16T06:08:09.618Z,10.14
2023-05-16T06:10:36.286Z,10.22
2023-05-16T06:13:03.168Z,10.04
2023-05-16T06:15:29.926Z,10.17
2023-05-16T06:17:57.152Z,9.96
2023-05-16T06:20:24.113Z,10.04
2023-05-16T06:22:50.887Z,10.08
2023-05-16T06:25:17.886Z,10.15
2023-05-16T06:27:44.605Z,10.13
2023-05-16T06:30:11.550Z,10.13
2023-05-16T06:32:40.392Z,10.29
2023-05-16T06:35:08.702Z,10.08
2023-05-16T06:37:35.374Z,10.11
2023-05-16T06:40:02.256Z,10.15
2023-05-16T06:42:29.009Z,10.03
2023-05-16T06:44:55.871Z,9.94
2023-05-16T06:47:22.784Z,10.05
2023-05-16T06:49:49.520Z,9.89
2023-05-16T06:52:16.302Z,10.27
2023-05-16T06:54:43.318Z,10.16
2023-05-16T06:57:10.093Z,10.18
2023-05-16T06:59:37.193Z,10.06
2023-05-16T07:02:04.183Z,10.06
2023-05-16T07:04:31.274Z,10.16
2023-05-16T07:06:58.109Z,10.35
2023-05-16T07:09:24.905Z,10.26
2023-05-16T07:11:51.846Z,10.45
2023-05-16T07:14:18.816Z,10.26
2023-05-16T07:16:45.855Z,10.47
2023-05-16T07:19:12.738Z,10.15
2023-05-16T07:21:39.658Z,10.23
2023-05-16T07:24:08.455Z,9.88
2023-05-16T07:26:35.280Z,9.98
2023-05-16T07:29:03.017Z,9.89
2023-05-16T07:31:30.282Z,9.96
2023-05-16T07:33:57.296Z,9.86
2023-05-16T07:36:24.296Z,9.77
2023-05-16T07:38:51.071Z,9.85
2023-05-16T07:41:17.797Z,9.68
2023-05-16T07:43:44.728Z,9.75
2023-05-16T07:46:11.665Z,9.72
2023-05-16T07:48:38.426Z,9.74
2023-05-16T07:51:05.253Z,9.78
2023-05-16T07:53:31.972Z,9.97
2023-05-16T07:55:58.897Z,9.86
2023-05-16T07:58:25.812Z,9.76
2023-05-16T08:00:52.677Z,9.73
2023-05-16T08:03:19.639Z,9.66
2023-05-16T08:05:46.651Z,9.63
2023-05-16T08:08:13.422Z,9.54
2023-05-16T08:10:40.188Z,9.79
2023-05-16T08:13:07.118Z,9.94
2023-05-16T08:15:33.969Z,10.45
2023-05-16T08:18:01.496Z,10.33
2023-05-16T08:20:28.481Z,10.23
2023-05-16T08:22:55.310Z,10.44
2023-05-16T08:25:22.051Z,10.34
2023-05-16T08:27:50.623Z,10.37
2023-05-16T08:30:17.432Z,10.13
2023-05-16T08:32:44.289Z,10.41
2023-05-16T08:35:11.519Z,10.63
2023-05-16T08:37:38.239Z,10.55
2023-05-16T08:40:08.517Z,10.67
2023-05-16T08:42:35.836Z,10.56
2023-05-16T08:45:03.148Z,10.54
2023-05-16T08:47:32.327Z,10.18
2023-05-16T08:50:02.924Z,10.42
2023-05-16T08:52:31.930Z,10.81
2023-05-16T08:57:33.991Z,10.65
2023-05-16T09:00:01.233Z,10.77
2023-05-16T09:02:28.804Z,10.84
2023-05-16T09:04:57.772Z,10.68
2023-05-16T09:07:25.212Z,11.00
2023-05-16T09:09:52.032Z,10.86
2023-05-16T09:12:20.404Z,11.26
2023-05-16T09:14:47.630Z,11.41
2023-05-16T09:17:20.490Z,12.35
2023-05-16T09:19:53.113Z,12.54
2023-05-16T09:22:20.995Z,12.12
2023-05-16T09:24:48.639Z,12.46
2023-05-16T09:27:16.518Z,12.71
2023-05-16T09:29:44.385Z,12.13
2023-05-16T09:32:14.299Z,12.97
2023-05-16T09:34:49.521Z,13.63
2023-05-16T09:37:16.448Z,14.50
2023-05-16T09:39:49.098Z,14.88
2023-05-16T09:42:17.059Z,13.79
2023-05-16T09:44:49.030Z,13.87
2023-05-16T09:47:19.410Z,14.44
2023-05-16T09:49:47.145Z,15.22
2023-05-16T09:52:16.771Z,14.38
2023-05-16T09:54:43.653Z,15.34
2023-05-16T09:57:10.694Z,16.14
2023-05-16T09:59:39.071Z,15.74
2023-05-16T10:02:08.714Z,16.32
2023-05-16T10:04:36.199Z,16.32
2023-05-16T10:07:09.781Z,16.99
2023-05-16T10:09:39.492Z,17.31
2023-05-16T10:12:09.489Z,17.11
2023-05-16T10:14:37.731Z,17.37
2023-05-16T10:17:07.681Z,17.57
2023-05-16T10:19:39.387Z,17.22
2023-05-16T10:22:07.734Z,17.22
2023-05-16T10:25:09.352Z,17.70
2023-05-16T10:27:36.702Z,16.26
2023-05-16T10:30:05.975Z,16.13
2023-05-16T10:32:33.330Z,16.56
2023-05-16T10:35:03.771Z,17.05
2023-05-16T10:37:33.891Z,17.10
2023-05-16T10:40:01.870Z,17.04
2023-05-16T10:42:28.584Z,18.00
2023-05-16T10:45:04.822Z,18.18
2023-05-16T10:47:32.980Z,18.30
2023-05-16T10:49:59.960Z,18.49
2023-05-16T10:52:35.328Z,18.48
2023-05-16T10:55:04.977Z,18.96
2023-05-16T10:57:33.251Z,18.53
2023-05-16T11:00:02.219Z,17.99
2023-05-16T11:02:30.132Z,17.59
2023-05-16T11:04:59.739Z,18.03
2023-05-16T11:07:34.819Z,18.22
2023-05-16T11:10:17.264Z,17.85
2023-05-16T11:12:45.845Z,17.85
2023-05-16T11:15:31.669Z,18.40
2023-05-16T11:18:08.610Z,17.10
2023-05-16T11:20:37.725Z,17.93
2023-05-16T11:23:22.513Z,16.99
2023-05-16T11:25:53.006Z,16.08
2023-05-16T11:28:20.998Z,17.88
2023-05-16T11:30:51.371Z,18.85
2023-05-16T11:33:18.890Z,17.69
2023-05-16T11:36:15.362Z,18.29
2023-05-16T11:38:44.163Z,18.53
2023-05-16T11:41:11.851Z,17.73
2023-05-16T11:43:43.394Z,17.29
2023-05-16T11:46:17.163Z,17.62
2023-05-16T11:48:46.200Z,18.63
2023-05-16T11:51:14.916Z,18.47
2023-05-16T11:53:41.906Z,18.21
2023-05-16T11:56:09.100Z,18.13
2023-05-16T11:58:37.189Z,19.05
2023-05-16T12:01:08.175Z,19.15
2023-05-16T12:03:37.106Z,18.10
2023-05-16T12:06:04.571Z,18.35
2023-05-16T12:08:31.355Z,18.91
2023-05-16T12:10:58.803Z,18.20
2023-05-16T12:13:26.114Z,18.57
2023-05-16T12:15:53.321Z,18.65
2023-05-16T12:18:22.034Z,18.47
2023-05-16T12:20:49.213Z,18.51
2023-05-16T12:23:16.600Z,18.92
2023-05-16T12:25:47.898Z,17.08
2023-05-16T12:28:15.364Z,18.33
2023-05-16T12:30:43.945Z,19.22
2023-05-16T12:33:15.484Z,19.80
2023-05-16T12:35:44.637Z,19.09
2023-05-16T12:38:13.521Z,18.31
2023-05-16T12:40:42.842Z,18.15
2023-05-16T12:43:17.188Z,18.95
2023-05-16T12:45:53.615Z,19.10
2023-05-16T12:48:21.076Z,19.43
2023-05-16T12:50:48.984Z,19.51
2023-05-16T12:53:17.566Z,18.40
2023-05-16T12:55:45.188Z,17.96
2023-05-16T12:58:12.191Z,17.78
2023-05-16T13:00:39.306Z,18.11
2023-05-16T13:03:08.065Z,19.23
2023-05-16T13:05:36.569Z,18.04
2023-05-16T13:08:04.001Z,17.60
2023-05-16T13:10:30.969Z,17.97
2023-05-16T13:13:00.336Z,17.57
2023-05-16T13:15:27.957Z,17.75
2023-05-16T13:17:55.203Z,17.45
2023-05-16T13:20:22.206Z,17.08
2023-05-16T13:22:49.205Z,16.87
2023-05-16T13:25:16.344Z,16.63
2023-05-16T13:27:43.152Z,17.03
2023-05-16T13:30:10.236Z,16.60
2023-05-16T13:32:37.235Z,16.63
2023-05-16T13:35:04.381Z,16.04
2023-05-16T13:37:31.607Z,16.53
2023-05-16T13:39:58.493Z,16.79
2023-05-16T13:42:25.343Z,17.36
2023-05-16T13:44:52.318Z,17.80
2023-05-16T13:47:19.067Z,17.13
2023-05-16T13:49:46.057Z,17.13
2023-05-16T13:52:12.898Z,17.42
2023-05-16T13:54:41.747Z,17.26
2023-05-16T13:57:08.786Z,16.94
2023-05-16T14:00:03.419Z,17.59
2023-05-16T14:02:22.688Z,18.24
2023-05-16T14:04:50.204Z,18.46
2023-05-16T14:07:17.192Z,18.06
2023-05-16T14:09:44.781Z,17.65
2023-05-16T14:12:11.769Z,17.42
2023-05-16T14:14:39.045Z,17.41
2023-05-16T14:17:06.764Z,17.11
2023-05-16T14:19:34.461Z,17.14
2023-05-16T14:22:01.293Z,16.92
2023-05-16T14:24:28.113Z,16.88
2023-05-16T14:26:58.399Z,16.75
2023-05-16T14:29:25.944Z,16.69
2023-05-16T14:31:53.367Z,16.47
2023-05-16T14:34:20.514Z,16.37
2023-05-16T14:36:47.561Z,16.38
2023-05-16T14:39:14.392Z,16.21
2023-05-16T14:41:41.218Z,16.45
2023-05-16T14:44:08.046Z,16.37
2023-05-16T14:46:34.778Z,16.42
2023-05-16T14:49:01.681Z,16.71
2023-05-16T14:51:28.543Z,17.46
2023-05-16T14:53:55.546Z,17.84
2023-05-16T14:56:22.865Z,17.90
2023-05-16T15:16:45.352Z,17.48
2023-05-16T15:19:12.284Z,18.36
2023-05-16T15:21:39.182Z,18.15
2023-05-16T15:24:06.945Z,16.87
2023-05-16T15:26:33.937Z,16.66
2023-05-16T15:29:00.762Z,16.51
2023-05-16T15:31:27.652Z,16.24
2023-05-16T15:33:54.434Z,16.06
2023-05-16T15:36:21.224Z,16.25
2023-05-16T15:38:48.000Z,15.97
2023-05-16T15:41:36.755Z,15.67
2023-05-16T15:44:02.867Z,16.40
2023-05-16T15:46:33.117Z,16.12
2023-05-16T15:49:00.227Z,16.63
2023-05-16T15:51:27.060Z,16.73
2023-05-16T15:53:53.782Z,16.61
2023-05-16T15:56:21.710Z,17.04
2023-05-16T15:58:48.809Z,16.50
2023-05-16T16:01:16.717Z,15.88
2023-05-16T16:03:43.785Z,15.87
2023-05-16T16:06:10.973Z,15.94
2023-05-16T16:08:37.859Z,15.69
2023-05-16T16:11:05.555Z,15.68
2023-05-16T16:13:33.246Z,15.45
2023-05-16T16:16:00.090Z,15.19
2023-05-16T16:18:27.225Z,15.39
2023-05-16T16:20:54.304Z,14.91
2023-05-16T16:23:21.842Z,14.90
2023-05-16T16:25:48.608Z,14.85
2023-05-16T16:28:15.495Z,14.82
2023-05-16T16:30:44.292Z,15.09
2023-05-16T16:33:11.132Z,14.40
2023-05-16T16:35:38.179Z,14.71
2023-05-16T16:38:07.218Z,14.70
2023-05-16T16:40:34.842Z,14.67
2023-05-16T16:43:01.802Z,14.49
2023-05-16T16:45:29.924Z,14.30
2023-05-16T16:47:57.932Z,14.29
2023-05-16T16:50:25.110Z,14.42
2023-05-16T16:52:51.837Z,14.24
2023-05-16T16:55:18.626Z,14.40
2023-05-16T16:57:46.053Z,14.47
2023-05-16T17:00:14.366Z,14.52
2023-05-16T17:02:41.270Z,14.25
2023-05-16T17:05:10.489Z,14.29
2023-05-16T17:07:37.424Z,14.34
2023-05-16T17:10:05.009Z,14.18
2023-05-16T17:12:34.775Z,14.20
2023-05-16T17:15:02.084Z,14.31
2023-05-16T17:17:29.234Z,14.37
2023-05-16T17:19:56.229Z,14.04
2023-05-16T17:22:23.033Z,14.16
2023-05-16T17:24:49.856Z,14.16
2023-05-16T17:27:17.144Z,14.26
2023-05-16T17:29:43.864Z,14.03
2023-05-16T17:32:10.591Z,14.06
2023-05-16T17:34:37.383Z,14.04
2023-05-16T17:37:06.310Z,14.10
2023-05-16T17:39:33.957Z,14.00
2023-05-16T17:42:00.841Z,13.75
2023-05-16T17:44:27.775Z,13.65
2023-05-16T17:46:54.651Z,13.44
2023-05-16T17:49:21.909Z,13.24
2023-05-16T17:51:54.063Z,13.33
2023-05-16T17:54:22.220Z,13.10
2023-05-16T17:56:50.625Z,13.20
2023-05-16T17:59:17.848Z,13.09
2023-05-16T18:01:44.746Z,13.06
2023-05-16T18:04:12.019Z,13.01
2023-05-16T18:06:39.417Z,12.95
2023-05-16T18:09:09.885Z,12.79
2023-05-16T18:11:38.756Z,12.81
2023-05-16T18:14:05.509Z,12.95
2023-05-16T18:16:32.351Z,12.77
2023-05-16T18:18:59.369Z,12.75
2023-05-16T18:21:26.275Z,12.88
2023-05-16T18:23:55.309Z,12.82
2023-05-16T18:26:23.373Z,12.84
2023-05-16T18:28:50.269Z,12.67
2023-05-16T18:31:17.234Z,12.52
2023-05-16T18:33:44.198Z,12.60
2023-05-16T18:36:11.361Z,12.39
2023-05-16T18:38:38.223Z,12.43
2023-05-16T18:41:06.520Z,12.29
2023-05-16T18:43:35.581Z,12.34
2023-05-16T18:46:03.539Z,12.23
2023-05-16T18:48:31.040Z,11.82
2023-05-16T18:50:57.975Z,11.76
2023-05-16T18:53:24.890Z,11.84
2023-05-16T18:55:51.842Z,11.65
2023-05-16T18:58:19.266Z,11.75
2023-05-16T19:00:46.582Z,11.64
2023-05-16T19:03:13.632Z,11.44
2023-05-16T19:05:40.747Z,11.44
2023-05-16T19:08:07.727Z,11.32
2023-05-16T19:10:38.210Z,11.19
2023-05-16T19:13:09.133Z,11.07
2023-05-16T19:15:36.745Z,11.06
2023-05-16T19:18:07.299Z,11.12
2023-05-16T19:20:35.352Z,10.95
2023-05-16T19:23:03.469Z,10.92
2023-05-16T19:25:30.748Z,11.00
2023-05-16T19:27:57.703Z,10.95
2023-05-16T19:30:25.000Z,11.01
2023-05-16T19:32:51.980Z,10.83
2023-05-16T19:35:22.831Z,10.85
2023-05-16T19:37:49.632Z,10.82
2023-05-16T19:40:17.392Z,10.64
2023-05-16T19:42:44.466Z,10.64
2023-05-16T19:45:11.703Z,10.68
2023-05-16T19:47:38.669Z,10.61
2023-05-16T19:50:06.957Z,10.56
2023-05-16T19:52:33.825Z,10.37
2023-05-16T19:55:01.166Z,10.41
2023-05-16T19:57:28.493Z,10.38
2023-05-16T19:59:56.009Z,10.24
2023-05-16T20:02:24.407Z,10.15
2023-05-16T20:04:51.694Z,10.23
2023-05-16T20:07:18.642Z,10.14
2023-05-16T20:09:45.529Z,10.13
2023-05-16T20:12:12.989Z,10.00
2023-05-16T20:14:39.728Z,10.02
2023-05-16T20:17:06.734Z,9.99
2023-05-16T20:19:33.574Z,9.97
2023-05-16T20:22:01.447Z,9.96
2023-05-16T20:24:28.286Z,9.70
2023-05-16T20:26:55.088Z,9.80
2023-05-16T20:29:21.829Z,9.72
2023-05-16T20:31:48.567Z,9.61
2023-05-16T20:34:15.327Z,9.57
2023-05-16T20:36:42.039Z,9.59
2023-05-16T20:39:09.368Z,9.65
2023-05-16T20:41:36.335Z,9.78
2023-05-16T20:44:03.079Z,9.70
2023-05-16T20:46:29.959Z,9.87
2023-05-16T20:48:56.713Z,9.87
2023-05-16T20:51:23.583Z,9.85
2023-05-16T20:53:50.400Z,9.93
2023-05-16T20:56:17.081Z,9.85
2023-05-16T20:58:44.044Z,9.85
2023-05-16T21:01:10.762Z,10.02
2023-05-16T21:03:37.593Z,9.93
2023-05-16T21:06:04.708Z,10.07
2023-05-16T21:08:31.914Z,9.92
2023-05-16T21:10:58.967Z,9.91
2023-05-16T21:13:26.105Z,9.98
2023-05-16T21:15:52.977Z,9.90
2023-05-16T21:18:19.907Z,9.95
2023-05-16T21:20:46.833Z,9.79
2023-05-16T21:23:13.650Z,9.79
2023-05-16T21:25:41.274Z,9.82
2023-05-16T21:28:08.187Z,9.81
2023-05-16T21:30:34.994Z,9.79
2023-05-16T21:33:02.023Z,9.60
2023-05-16T21:35:29.308Z,9.67
2023-05-16T21:37:56.421Z,9.60
2023-05-16T21:40:25.930Z,9.64
2023-05-16T21:42:53.057Z,9.60
2023-05-16T21:45:19.951Z,9.71
2023-05-16T21:47:47.060Z,9.65
2023-05-16T21:50:14.214Z,9.70
2023-05-16T21:52:41.505Z,9.59
2023-05-16T21:55:08.625Z,9.39
2023-05-16T21:57:35.611Z,9.29
2023-05-16T22:00:06.934Z,9.30
2023-05-16T22:02:34.930Z,9.22
2023-05-16T22:05:01.926Z,9.17
2023-05-16T22:07:29.480Z,9.32
2023-05-16T22:09:56.946Z,9.33
2023-05-16T22:12:24.414Z,9.13
2023-05-16T22:14:51.677Z,9.17
2023-05-16T22:17:19.591Z,9.18
2023-05-16T22:19:46.927Z,9.20
2023-05-16T22:22:13.786Z,9.17
2023-05-16T22:24:40.728Z,9.17
2023-05-16T22:27:07.637Z,9.13
2023-05-16T22:29:38.486Z,9.10
2023-05-16T22:32:09.532Z,9.04
2023-05-16T22:34:39.839Z,8.87
2023-05-16T22:37:07.777Z,8.80
2023-05-16T22:39:34.862Z,8.86
2023-05-16T22:42:02.037Z,8.88
2023-05-16T22:44:28.907Z,8.89
2023-05-16T22:46:55.934Z,8.79
2023-05-16T22:49:22.649Z,8.49
2023-05-16T22:51:50.041Z,8.47
2023-05-16T22:54:17.229Z,8.35
2023-05-16T22:56:44.010Z,8.36
2023-05-16T22:59:11.085Z,8.29
2023-05-16T23:01:37.817Z,8.16
2023-05-16T23:04:04.932Z,8.16
2023-05-16T23:06:32.735Z,8.14
2023-05-16T23:09:04.174Z,8.02
2023-05-16T23:11:31.813Z,7.92
2023-05-16T23:13:58.640Z,7.92
2023-05-16T23:16:25.366Z,7.86
2023-05-16T23:18:52.318Z,7.81
2023-05-16T23:21:19.115Z,7.81
2023-05-16T23:23:45.791Z,7.67
2023-05-16T23:26:12.672Z,7.64
2023-05-16T23:28:39.497Z,7.67
2023-05-16T23:31:09.024Z,7.67
2023-05-16T23:33:35.934Z,7.67
2023-05-16T23:36:02.963Z,7.70
2023-05-16T23:38:29.811Z,7.75
2023-05-16T23:40:56.481Z,7.73
2023-05-16T23:43:23.169Z,7.64
2023-05-16T23:45:49.908Z,7.61
2023-05-16T23:48:16.667Z,7.47
2023-05-16T23:50:43.556Z,7.48
2023-05-16T23:53:10.293Z,7.31
2023-05-16T23:55:36.983Z,7.22
2023-05-16T23:58:03.816Z,7.15
